Pioneer Knutsen — LMIK — position and weather

sailwx.info

Track history (hours):
 
Tides and Currents Weather Stations Pressure Air Temp Water Temp Dewpoint Dewpoint Depression Visibility Wind Speed Wind Dir Waves Ship Positions

Pioneer Knutsen

Last reported at 2015-Sep-01 05:32 UTC. Time now 2015-Sep-01 20:19 UTC.
Position N 65°18' E 011°59'.

Length 70 m; draft 3.6 m.

Type: Ship. MMSI: 259393000.

Date/timePositionNaut miles runAvg speedWind from/ knotsBaromVisibWave heightAir tempDewpointWater temp
2015-Sep-01 05:32N 65°18' E 011°59'1111.0
2015-Sep-01 04:33N 65°08' E 011°49'1111.0
2015-Sep-01 03:33N 64°59' E 011°35'1110.7
2015-Sep-01 02:33N 64°52' E 011°16'5610.4
2015-Aug-31 21:10N 64°06' E 010°00'711.2
2015-Aug-31 20:33N 64°02' E 009°48'1010.3
2015-Aug-31 19:33N 63°52' E 009°42'1110.8
2015-Aug-31 18:33N 63°42' E 009°31'5711.0
2015-Aug-31 13:24N 63°10' E 007°46'51 1.0
2015-Aug-29 10:34N 63°36' E 009°26'1010.5
2015-Aug-29 09:34N 63°46' E 009°32'1010.4
2015-Aug-29 08:34N 63°54' E 009°46'1010.2
2015-Aug-29 07:34N 64°04' E 009°52'46 9.0
2015-Aug-29 02:26N 64°42' E 010°51'910.2
2015-Aug-29 01:33N 64°48' E 011°07'1211.6
2015-Aug-29 00:33N 64°56' E 011°27'1111.3
2015-Aug-28 23:33N 65°04' E 011°46'1211.5
2015-Aug-28 22:33N 65°15' E 011°56'2 0.1
2015-Aug-28 03:33N 65°17' E 011°58'1212.0
2015-Aug-28 02:33N 65°06' E 011°48'1111.5
2015-Aug-28 01:33N 64°57' E 011°30'1111.0
2015-Aug-28 00:33N 64°50' E 011°10'5410.6
2015-Aug-27 19:31N 64°06' E 009°59'10 9.9
2015-Aug-27 18:33N 63°58' E 009°47'1110.6
2015-Aug-27 17:33N 63°49' E 009°35'1 1.4
2015-Aug-27 16:32N 63°49' E 009°38'0 0.0
2015-Aug-27 15:32N 63°49' E 009°38'0 0.0
2015-Aug-27 14:32N 63°49' E 009°38'0 0.1
2015-Aug-27 13:33N 63°49' E 009°38'1110.6
2015-Aug-27 12:33N 63°39' E 009°29'  
2015-Aug-25 04:28N 63°35' E 009°23'1010.8
2015-Aug-25 03:33N 63°44' E 009°32'1110.8
2015-Aug-25 02:33N 63°53' E 009°44'1110.6
2015-Aug-25 01:33N 64°04' E 009°50'4610.6
2015-Aug-24 21:14N 64°41' E 010°49'811.5
2015-Aug-24 20:33N 64°47' E 011°03'1111.5
2015-Aug-24 19:33N 64°55' E 011°22'1111.5
2015-Aug-24 18:33N 65°02' E 011°43'1211.5
2015-Aug-24 17:33N 65°13' E 011°53'0 0.0
2015-Aug-23 23:31N 65°13' E 011°53'1010.0
2015-Aug-23 22:33N 65°04' E 011°45'1110.7
2015-Aug-23 21:33N 64°56' E 011°27'1110.9
2015-Aug-23 20:34N 64°49' E 011°08'5410.6
2015-Aug-23 15:27N 64°05' E 009°55'910.1
2015-Aug-23 14:33N 63°56' E 009°48'1111.3
2015-Aug-23 13:33N 63°47' E 009°34'  
Track history (hours):
 
Tides and Currents Weather Stations Pressure Air Temp Water Temp Dewpoint Dewpoint Depression Visibility Wind Speed Wind Dir Waves Ship Positions

Pioneer Knutsen

Last reported at 2015-Sep-01 05:32 UTC. Time now 2015-Sep-01 20:19 UTC.
Position N 65°18' E 011°59'.

Length 70 m; draft 3.6 m.

Type: Ship. MMSI: 259393000.

Date/timePositionNaut miles runAvg speedWind from/ knotsBaromVisibWave heightAir tempDewpointWater temp
2015-Sep-01 05:32N 65°18' E 011°59'1111.0
2015-Sep-01 04:33N 65°08' E 011°49'1111.0
2015-Sep-01 03:33N 64°59' E 011°35'1110.7
2015-Sep-01 02:33N 64°52' E 011°16'5610.4
2015-Aug-31 21:10N 64°06' E 010°00'711.2
2015-Aug-31 20:33N 64°02' E 009°48'1010.3
2015-Aug-31 19:33N 63°52' E 009°42'1110.8
2015-Aug-31 18:33N 63°42' E 009°31'5711.0
2015-Aug-31 13:24N 63°10' E 007°46'51 1.0
2015-Aug-29 10:34N 63°36' E 009°26'1010.5
2015-Aug-29 09:34N 63°46' E 009°32'1010.4
2015-Aug-29 08:34N 63°54' E 009°46'1010.2
2015-Aug-29 07:34N 64°04' E 009°52'46 9.0
2015-Aug-29 02:26N 64°42' E 010°51'910.2
2015-Aug-29 01:33N 64°48' E 011°07'1211.6
2015-Aug-29 00:33N 64°56' E 011°27'1111.3
2015-Aug-28 23:33N 65°04' E 011°46'1211.5
2015-Aug-28 22:33N 65°15' E 011°56'2 0.1
2015-Aug-28 03:33N 65°17' E 011°58'1212.0
2015-Aug-28 02:33N 65°06' E 011°48'1111.5
2015-Aug-28 01:33N 64°57' E 011°30'1111.0
2015-Aug-28 00:33N 64°50' E 011°10'5410.6
2015-Aug-27 19:31N 64°06' E 009°59'10 9.9
2015-Aug-27 18:33N 63°58' E 009°47'1110.6
2015-Aug-27 17:33N 63°49' E 009°35'1 1.4
2015-Aug-27 16:32N 63°49' E 009°38'0 0.0
2015-Aug-27 15:32N 63°49' E 009°38'0 0.0
2015-Aug-27 14:32N 63°49' E 009°38'0 0.1
2015-Aug-27 13:33N 63°49' E 009°38'1110.6
2015-Aug-27 12:33N 63°39' E 009°29'  
2015-Aug-25 04:28N 63°35' E 009°23'1010.8
2015-Aug-25 03:33N 63°44' E 009°32'1110.8
2015-Aug-25 02:33N 63°53' E 009°44'1110.6
2015-Aug-25 01:33N 64°04' E 009°50'4610.6
2015-Aug-24 21:14N 64°41' E 010°49'811.5
2015-Aug-24 20:33N 64°47' E 011°03'1111.5
2015-Aug-24 19:33N 64°55' E 011°22'1111.5
2015-Aug-24 18:33N 65°02' E 011°43'1211.5
2015-Aug-24 17:33N 65°13' E 011°53'0 0.0
2015-Aug-23 23:31N 65°13' E 011°53'1010.0
2015-Aug-23 22:33N 65°04' E 011°45'1110.7
2015-Aug-23 21:33N 64°56' E 011°27'1110.9
2015-Aug-23 20:34N 64°49' E 011°08'5410.6
2015-Aug-23 15:27N 64°05' E 009°55'910.1
2015-Aug-23 14:33N 63°56' E 009°48'1111.3
2015-Aug-23 13:33N 63°47' E 009°34'  

Dump ship's entire track history